sensor_id;sensor_type;location;lat;lon;timestamp;P1;durP1;ratioP1;P2;durP2;ratioP2
40162;SDS011;25881;47.462;19.304;2023-04-06T00:01:35;16.58;;;7.70;;
40162;SDS011;25881;47.462;19.304;2023-04-06T00:04:01;12.27;;;6.40;;
40162;SDS011;25881;47.462;19.304;2023-04-06T00:06:26;13.53;;;7.87;;
40162;SDS011;25881;47.462;19.304;2023-04-06T00:08:51;15.23;;;7.20;;
40162;SDS011;25881;47.462;19.304;2023-04-06T00:11:17;13.88;;;8.10;;
40162;SDS011;25881;47.462;19.304;2023-04-06T00:13:42;13.80;;;7.70;;
40162;SDS011;25881;47.462;19.304;2023-04-06T00:16:07;14.37;;;7.87;;
40162;SDS011;25881;47.462;19.304;2023-04-06T00:18:33;15.52;;;8.52;;
40162;SDS011;25881;47.462;19.304;2023-04-06T00:20:58;18.65;;;9.88;;
40162;SDS011;25881;47.462;19.304;2023-04-06T00:23:23;17.40;;;9.97;;
40162;SDS011;25881;47.462;19.304;2023-04-06T00:25:48;13.95;;;8.60;;
40162;SDS011;25881;47.462;19.304;2023-04-06T00:28:14;13.43;;;8.38;;
40162;SDS011;25881;47.462;19.304;2023-04-06T00:30:40;13.38;;;8.45;;
40162;SDS011;25881;47.462;19.304;2023-04-06T00:33:05;15.07;;;9.07;;
40162;SDS011;25881;47.462;19.304;2023-04-06T00:35:31;15.27;;;8.07;;
40162;SDS011;25881;47.462;19.304;2023-04-06T00:37:56;11.35;;;8.30;;
40162;SDS011;25881;47.462;19.304;2023-04-06T00:40:21;15.27;;;8.23;;
40162;SDS011;25881;47.462;19.304;2023-04-06T00:42:46;14.50;;;8.17;;
40162;SDS011;25881;47.462;19.304;2023-04-06T00:45:12;17.20;;;8.97;;
40162;SDS011;25881;47.462;19.304;2023-04-06T00:47:37;12.87;;;7.83;;
40162;SDS011;25881;47.462;19.304;2023-04-06T00:50:02;14.37;;;6.87;;
40162;SDS011;25881;47.462;19.304;2023-04-06T00:52:28;13.63;;;8.20;;
40162;SDS011;25881;47.462;19.304;2023-04-06T00:54:53;13.13;;;7.13;;
40162;SDS011;25881;47.462;19.304;2023-04-06T00:57:18;12.43;;;7.00;;
40162;SDS011;25881;47.462;19.304;2023-04-06T00:59:43;14.63;;;7.43;;
40162;SDS011;25881;47.462;19.304;2023-04-06T01:02:09;17.23;;;8.10;;
40162;SDS011;25881;47.462;19.304;2023-04-06T01:04:35;12.95;;;7.00;;
40162;SDS011;25881;47.462;19.304;2023-04-06T01:07:00;11.70;;;6.88;;
40162;SDS011;25881;47.462;19.304;2023-04-06T01:09:28;12.32;;;6.07;;
40162;SDS011;25881;47.462;19.304;2023-04-06T01:11:55;13.05;;;7.13;;
40162;SDS011;25881;47.462;19.304;2023-04-06T01:14:21;12.05;;;6.47;;
40162;SDS011;25881;47.462;19.304;2023-04-06T01:16:46;11.98;;;6.93;;
40162;SDS011;25881;47.462;19.304;2023-04-06T01:19:11;22.13;;;7.67;;
40162;SDS011;25881;47.462;19.304;2023-04-06T01:21:37;12.48;;;6.90;;
40162;SDS011;25881;47.462;19.304;2023-04-06T01:24:02;12.15;;;6.57;;
40162;SDS011;25881;47.462;19.304;2023-04-06T01:26:28;12.57;;;6.65;;
40162;SDS011;25881;47.462;19.304;2023-04-06T01:28:54;13.55;;;7.20;;
40162;SDS011;25881;47.462;19.304;2023-04-06T01:31:19;11.52;;;6.22;;
40162;SDS011;25881;47.462;19.304;2023-04-06T01:33:45;13.63;;;7.07;;
40162;SDS011;25881;47.462;19.304;2023-04-06T01:36:10;13.93;;;6.53;;
40162;SDS011;25881;47.462;19.304;2023-04-06T01:38:36;15.02;;;6.10;;
40162;SDS011;25881;47.462;19.304;2023-04-06T01:41:01;9.17;;;5.97;;
40162;SDS011;25881;47.462;19.304;2023-04-06T01:43:26;11.70;;;6.60;;
40162;SDS011;25881;47.462;19.304;2023-04-06T01:45:52;11.25;;;6.70;;
40162;SDS011;25881;47.462;19.304;2023-04-06T01:48:18;8.77;;;6.03;;
40162;SDS011;25881;47.462;19.304;2023-04-06T01:50:43;9.68;;;5.80;;
40162;SDS011;25881;47.462;19.304;2023-04-06T01:53:08;10.95;;;5.75;;
40162;SDS011;25881;47.462;19.304;2023-04-06T01:55:34;13.30;;;6.70;;
40162;SDS011;25881;47.462;19.304;2023-04-06T01:57:59;11.02;;;5.90;;
40162;SDS011;25881;47.462;19.304;2023-04-06T02:00:25;11.80;;;6.57;;
40162;SDS011;25881;47.462;19.304;2023-04-06T02:02:50;11.43;;;5.95;;
40162;SDS011;25881;47.462;19.304;2023-04-06T02:05:15;10.77;;;6.63;;
40162;SDS011;25881;47.462;19.304;2023-04-06T02:07:41;11.40;;;6.32;;
40162;SDS011;25881;47.462;19.304;2023-04-06T02:10:10;15.00;;;7.13;;
40162;SDS011;25881;47.462;19.304;2023-04-06T02:12:36;11.15;;;6.72;;
40162;SDS011;25881;47.462;19.304;2023-04-06T02:15:01;11.73;;;6.77;;
40162;SDS011;25881;47.462;19.304;2023-04-06T02:17:26;15.43;;;7.40;;
40162;SDS011;25881;47.462;19.304;2023-04-06T02:19:51;14.43;;;7.72;;
40162;SDS011;25881;47.462;19.304;2023-04-06T02:22:17;12.40;;;6.83;;
40162;SDS011;25881;47.462;19.304;2023-04-06T02:24:42;13.18;;;7.45;;
40162;SDS011;25881;47.462;19.304;2023-04-06T02:27:07;13.37;;;7.40;;
40162;SDS011;25881;47.462;19.304;2023-04-06T02:29:32;15.98;;;8.93;;
40162;SDS011;25881;47.462;19.304;2023-04-06T02:31:58;15.53;;;8.60;;
40162;SDS011;25881;47.462;19.304;2023-04-06T02:34:23;17.07;;;10.00;;
40162;SDS011;25881;47.462;19.304;2023-04-06T02:36:48;17.40;;;10.43;;
40162;SDS011;25881;47.462;19.304;2023-04-06T02:39:13;17.57;;;8.80;;
40162;SDS011;25881;47.462;19.304;2023-04-06T02:41:39;18.03;;;9.10;;
40162;SDS011;25881;47.462;19.304;2023-04-06T02:44:06;16.20;;;9.90;;
40162;SDS011;25881;47.462;19.304;2023-04-06T02:46:32;19.60;;;10.70;;
40162;SDS011;25881;47.462;19.304;2023-04-06T02:48:57;18.47;;;10.63;;
40162;SDS011;25881;47.462;19.304;2023-04-06T02:51:25;24.77;;;13.73;;
40162;SDS011;25881;47.462;19.304;2023-04-06T02:53:50;22.30;;;12.77;;
40162;SDS011;25881;47.462;19.304;2023-04-06T02:56:15;18.10;;;10.27;;
40162;SDS011;25881;47.462;19.304;2023-04-06T02:58:41;15.00;;;9.27;;
40162;SDS011;25881;47.462;19.304;2023-04-06T03:01:06;13.67;;;8.43;;
40162;SDS011;25881;47.462;19.304;2023-04-06T03:03:31;16.77;;;8.40;;
40162;SDS011;25881;47.462;19.304;2023-04-06T03:05:56;14.60;;;8.50;;
40162;SDS011;25881;47.462;19.304;2023-04-06T03:08:23;17.23;;;8.35;;
40162;SDS011;25881;47.462;19.304;2023-04-06T03:10:49;17.33;;;8.77;;
40162;SDS011;25881;47.462;19.304;2023-04-06T03:13:14;17.40;;;9.02;;
40162;SDS011;25881;47.462;19.304;2023-04-06T03:15:39;16.33;;;8.30;;
40162;SDS011;25881;47.462;19.304;2023-04-06T03:18:04;14.20;;;8.90;;
40162;SDS011;25881;47.462;19.304;2023-04-06T03:20:30;16.60;;;9.20;;
40162;SDS011;25881;47.462;19.304;2023-04-06T03:22:55;15.83;;;9.53;;
40162;SDS011;25881;47.462;19.304;2023-04-06T03:25:20;17.23;;;10.68;;
40162;SDS011;25881;47.462;19.304;2023-04-06T03:27:45;19.33;;;10.73;;
40162;SDS011;25881;47.462;19.304;2023-04-06T03:30:11;21.50;;;11.57;;
40162;SDS011;25881;47.462;19.304;2023-04-06T03:32:36;19.42;;;10.77;;
40162;SDS011;25881;47.462;19.304;2023-04-06T03:35:01;17.70;;;9.93;;
40162;SDS011;25881;47.462;19.304;2023-04-06T03:37:26;15.83;;;10.00;;
40162;SDS011;25881;47.462;19.304;2023-04-06T03:39:52;17.97;;;10.17;;
40162;SDS011;25881;47.462;19.304;2023-04-06T03:42:17;17.95;;;9.70;;
40162;SDS011;25881;47.462;19.304;2023-04-06T03:44:42;17.07;;;8.93;;
40162;SDS011;25881;47.462;19.304;2023-04-06T03:47:07;15.53;;;8.43;;
40162;SDS011;25881;47.462;19.304;2023-04-06T03:49:33;14.27;;;8.20;;
40162;SDS011;25881;47.462;19.304;2023-04-06T03:51:58;17.70;;;8.55;;
40162;SDS011;25881;47.462;19.304;2023-04-06T03:54:23;15.50;;;9.57;;
40162;SDS011;25881;47.462;19.304;2023-04-06T03:56:48;19.30;;;9.73;;
40162;SDS011;25881;47.462;19.304;2023-04-06T03:59:14;20.48;;;11.60;;
40162;SDS011;25881;47.462;19.304;2023-04-06T04:01:40;25.17;;;12.70;;
40162;SDS011;25881;47.462;19.304;2023-04-06T04:04:05;28.33;;;14.88;;
40162;SDS011;25881;47.462;19.304;2023-04-06T04:06:30;27.27;;;13.83;;
40162;SDS011;25881;47.462;19.304;2023-04-06T04:08:56;25.20;;;13.88;;
40162;SDS011;25881;47.462;19.304;2023-04-06T04:11:21;24.30;;;12.23;;
40162;SDS011;25881;47.462;19.304;2023-04-06T04:13:46;24.80;;;13.05;;
40162;SDS011;25881;47.462;19.304;2023-04-06T04:16:12;24.08;;;11.88;;
40162;SDS011;25881;47.462;19.304;2023-04-06T04:18:37;23.83;;;11.93;;
40162;SDS011;25881;47.462;19.304;2023-04-06T04:21:02;22.20;;;11.23;;
40162;SDS011;25881;47.462;19.304;2023-04-06T04:23:27;19.70;;;11.20;;
40162;SDS011;25881;47.462;19.304;2023-04-06T04:25:53;21.63;;;10.70;;
40162;SDS011;25881;47.462;19.304;2023-04-06T04:28:18;19.13;;;10.90;;
40162;SDS011;25881;47.462;19.304;2023-04-06T04:30:43;19.00;;;10.30;;
40162;SDS011;25881;47.462;19.304;2023-04-06T04:33:08;23.07;;;10.93;;
40162;SDS011;25881;47.462;19.304;2023-04-06T04:35:33;16.93;;;9.47;;
40162;SDS011;25881;47.462;19.304;2023-04-06T04:37:59;23.85;;;11.00;;
40162;SDS011;25881;47.462;19.304;2023-04-06T04:40:24;17.63;;;10.87;;
40162;SDS011;25881;47.462;19.304;2023-04-06T04:42:49;19.50;;;10.77;;
40162;SDS011;25881;47.462;19.304;2023-04-06T04:45:16;17.15;;;10.32;;
40162;SDS011;25881;47.462;19.304;2023-04-06T04:47:41;18.35;;;10.98;;
40162;SDS011;25881;47.462;19.304;2023-04-06T04:50:06;17.97;;;11.80;;
40162;SDS011;25881;47.462;19.304;2023-04-06T04:52:32;25.88;;;12.65;;
40162;SDS011;25881;47.462;19.304;2023-04-06T04:54:57;18.50;;;11.50;;
40162;SDS011;25881;47.462;19.304;2023-04-06T04:57:22;20.10;;;12.20;;
40162;SDS011;25881;47.462;19.304;2023-04-06T04:59:47;23.63;;;11.63;;
40162;SDS011;25881;47.462;19.304;2023-04-06T05:02:14;31.67;;;13.38;;
40162;SDS011;25881;47.462;19.304;2023-04-06T05:04:39;28.10;;;14.13;;
40162;SDS011;25881;47.462;19.304;2023-04-06T05:07:08;28.80;;;14.70;;
40162;SDS011;25881;47.462;19.304;2023-04-06T05:09:33;29.35;;;13.40;;
40162;SDS011;25881;47.462;19.304;2023-04-06T05:11:59;27.42;;;13.43;;
40162;SDS011;25881;47.462;19.304;2023-04-06T05:14:25;21.95;;;12.35;;
40162;SDS011;25881;47.462;19.304;2023-04-06T05:16:51;23.48;;;12.40;;
40162;SDS011;25881;47.462;19.304;2023-04-06T05:19:16;27.50;;;11.63;;
40162;SDS011;25881;47.462;19.304;2023-04-06T05:21:42;19.55;;;11.77;;
40162;SDS011;25881;47.462;19.304;2023-04-06T05:24:07;27.10;;;12.10;;
40162;SDS011;25881;47.462;19.304;2023-04-06T05:26:33;17.95;;;10.73;;
40162;SDS011;25881;47.462;19.304;2023-04-06T05:28:58;20.00;;;10.32;;
40162;SDS011;25881;47.462;19.304;2023-04-06T05:31:24;16.85;;;10.77;;
40162;SDS011;25881;47.462;19.304;2023-04-06T05:33:49;20.48;;;10.52;;
40162;SDS011;25881;47.462;19.304;2023-04-06T05:36:15;21.80;;;10.50;;
40162;SDS011;25881;47.462;19.304;2023-04-06T05:38:40;19.15;;;10.00;;
40162;SDS011;25881;47.462;19.304;2023-04-06T05:41:05;17.23;;;10.50;;
40162;SDS011;25881;47.462;19.304;2023-04-06T05:43:31;17.20;;;10.05;;
40162;SDS011;25881;47.462;19.304;2023-04-06T05:45:56;22.30;;;10.10;;
40162;SDS011;25881;47.462;19.304;2023-04-06T05:48:21;22.13;;;10.52;;
40162;SDS011;25881;47.462;19.304;2023-04-06T05:50:49;16.40;;;9.77;;
40162;SDS011;25881;47.462;19.304;2023-04-06T05:53:18;21.95;;;11.25;;
40162;SDS011;25881;47.462;19.304;2023-04-06T05:55:43;40.80;;;12.13;;
40162;SDS011;25881;47.462;19.304;2023-04-06T05:58:09;21.87;;;10.77;;
40162;SDS011;25881;47.462;19.304;2023-04-06T06:00:34;21.38;;;10.80;;
40162;SDS011;25881;47.462;19.304;2023-04-06T06:02:59;21.02;;;11.57;;
40162;SDS011;25881;47.462;19.304;2023-04-06T06:05:24;18.40;;;11.68;;
40162;SDS011;25881;47.462;19.304;2023-04-06T06:07:50;22.30;;;12.70;;
40162;SDS011;25881;47.462;19.304;2023-04-06T06:10:15;21.33;;;12.23;;
40162;SDS011;25881;47.462;19.304;2023-04-06T06:12:40;22.60;;;13.25;;
40162;SDS011;25881;47.462;19.304;2023-04-06T06:15:06;23.67;;;13.07;;
40162;SDS011;25881;47.462;19.304;2023-04-06T06:17:31;31.80;;;15.52;;
40162;SDS011;25881;47.462;19.304;2023-04-06T06:19:56;24.43;;;14.33;;
40162;SDS011;25881;47.462;19.304;2023-04-06T06:22:22;31.15;;;17.65;;
40162;SDS011;25881;47.462;19.304;2023-04-06T06:24:47;32.07;;;14.70;;
40162;SDS011;25881;47.462;19.304;2023-04-06T06:27:12;26.33;;;15.00;;
40162;SDS011;25881;47.462;19.304;2023-04-06T06:29:37;28.17;;;15.03;;
40162;SDS011;25881;47.462;19.304;2023-04-06T06:32:03;32.87;;;17.20;;
40162;SDS011;25881;47.462;19.304;2023-04-06T06:34:28;33.03;;;18.52;;
40162;SDS011;25881;47.462;19.304;2023-04-06T06:36:53;23.57;;;14.57;;
40162;SDS011;25881;47.462;19.304;2023-04-06T06:39:20;40.40;;;22.67;;
40162;SDS011;25881;47.462;19.304;2023-04-06T06:41:45;57.45;;;32.30;;
40162;SDS011;25881;47.462;19.304;2023-04-06T06:44:10;82.27;;;46.70;;
40162;SDS011;25881;47.462;19.304;2023-04-06T06:46:36;28.08;;;17.95;;
40162;SDS011;25881;47.462;19.304;2023-04-06T06:49:01;31.63;;;15.70;;
40162;SDS011;25881;47.462;19.304;2023-04-06T06:51:27;25.05;;;14.73;;
40162;SDS011;25881;47.462;19.304;2023-04-06T06:53:53;22.37;;;12.30;;
40162;SDS011;25881;47.462;19.304;2023-04-06T06:56:18;22.07;;;13.83;;
40162;SDS011;25881;47.462;19.304;2023-04-06T06:58:43;26.73;;;13.23;;
40162;SDS011;25881;47.462;19.304;2023-04-06T07:01:08;173.63;;;27.00;;
40162;SDS011;25881;47.462;19.304;2023-04-06T07:03:34;24.20;;;12.43;;
40162;SDS011;25881;47.462;19.304;2023-04-06T07:05:59;20.10;;;10.73;;
40162;SDS011;25881;47.462;19.304;2023-04-06T07:08:24;18.97;;;11.70;;
40162;SDS011;25881;47.462;19.304;2023-04-06T07:10:50;18.85;;;11.45;;
40162;SDS011;25881;47.462;19.304;2023-04-06T07:13:17;21.33;;;11.05;;
40162;SDS011;25881;47.462;19.304;2023-04-06T07:15:46;16.88;;;10.00;;
40162;SDS011;25881;47.462;19.304;2023-04-06T07:18:11;19.65;;;10.68;;
40162;SDS011;25881;47.462;19.304;2023-04-06T07:20:37;18.83;;;10.87;;
40162;SDS011;25881;47.462;19.304;2023-04-06T07:23:02;20.20;;;11.37;;
40162;SDS011;25881;47.462;19.304;2023-04-06T07:25:27;19.48;;;10.32;;
40162;SDS011;25881;47.462;19.304;2023-04-06T07:27:53;18.67;;;10.38;;
40162;SDS011;25881;47.462;19.304;2023-04-06T07:30:18;22.40;;;10.18;;
40162;SDS011;25881;47.462;19.304;2023-04-06T07:32:44;17.52;;;9.13;;
40162;SDS011;25881;47.462;19.304;2023-04-06T07:35:10;18.75;;;9.85;;
40162;SDS011;25881;47.462;19.304;2023-04-06T07:37:35;16.25;;;9.35;;
40162;SDS011;25881;47.462;19.304;2023-04-06T07:40:00;17.25;;;9.70;;
40162;SDS011;25881;47.462;19.304;2023-04-06T07:42:26;19.27;;;9.90;;
40162;SDS011;25881;47.462;19.304;2023-04-06T07:44:51;16.13;;;9.73;;
40162;SDS011;25881;47.462;19.304;2023-04-06T07:47:16;17.40;;;9.93;;
40162;SDS011;25881;47.462;19.304;2023-04-06T07:49:41;19.93;;;10.67;;
40162;SDS011;25881;47.462;19.304;2023-04-06T07:52:07;18.07;;;9.63;;
40162;SDS011;25881;47.462;19.304;2023-04-06T07:54:32;21.07;;;10.07;;
40162;SDS011;25881;47.462;19.304;2023-04-06T07:56:57;19.10;;;10.37;;
40162;SDS011;25881;47.462;19.304;2023-04-06T07:59:22;17.73;;;10.07;;
40162;SDS011;25881;47.462;19.304;2023-04-06T08:01:48;17.60;;;9.37;;
40162;SDS011;25881;47.462;19.304;2023-04-06T08:04:13;22.63;;;10.00;;
40162;SDS011;25881;47.462;19.304;2023-04-06T08:06:38;17.73;;;10.97;;
40162;SDS011;25881;47.462;19.304;2023-04-06T08:09:05;20.13;;;9.82;;
40162;SDS011;25881;47.462;19.304;2023-04-06T08:11:31;20.37;;;9.00;;
40162;SDS011;25881;47.462;19.304;2023-04-06T08:13:56;18.50;;;9.37;;
40162;SDS011;25881;47.462;19.304;2023-04-06T08:16:22;18.73;;;9.25;;
40162;SDS011;25881;47.462;19.304;2023-04-06T08:18:47;16.33;;;10.30;;
40162;SDS011;25881;47.462;19.304;2023-04-06T08:21:12;14.50;;;9.73;;
40162;SDS011;25881;47.462;19.304;2023-04-06T08:23:37;15.93;;;9.57;;
40162;SDS011;25881;47.462;19.304;2023-04-06T08:26:03;14.80;;;7.43;;
40162;SDS011;25881;47.462;19.304;2023-04-06T08:28:28;13.33;;;7.60;;
40162;SDS011;25881;47.462;19.304;2023-04-06T08:30:53;14.88;;;7.57;;
40162;SDS011;25881;47.462;19.304;2023-04-06T08:33:18;14.35;;;7.10;;
40162;SDS011;25881;47.462;19.304;2023-04-06T08:35:44;12.10;;;7.50;;
40162;SDS011;25881;47.462;19.304;2023-04-06T08:38:09;13.05;;;7.15;;
40162;SDS011;25881;47.462;19.304;2023-04-06T08:40:38;11.70;;;6.85;;
40162;SDS011;25881;47.462;19.304;2023-04-06T08:43:03;20.23;;;7.63;;
40162;SDS011;25881;47.462;19.304;2023-04-06T08:45:33;15.02;;;7.65;;
40162;SDS011;25881;47.462;19.304;2023-04-06T08:47:58;14.57;;;7.47;;
40162;SDS011;25881;47.462;19.304;2023-04-06T08:50:26;12.82;;;7.57;;
40162;SDS011;25881;47.462;19.304;2023-04-06T08:52:52;18.50;;;7.90;;
40162;SDS011;25881;47.462;19.304;2023-04-06T08:55:18;13.77;;;7.68;;
40162;SDS011;25881;47.462;19.304;2023-04-06T08:57:44;14.15;;;7.43;;
40162;SDS011;25881;47.462;19.304;2023-04-06T09:00:10;12.73;;;7.35;;
40162;SDS011;25881;47.462;19.304;2023-04-06T09:02:39;17.05;;;8.63;;
40162;SDS011;25881;47.462;19.304;2023-04-06T09:05:08;12.20;;;7.32;;
40162;SDS011;25881;47.462;19.304;2023-04-06T09:07:34;17.25;;;8.20;;
40162;SDS011;25881;47.462;19.304;2023-04-06T09:10:00;16.13;;;8.10;;
40162;SDS011;25881;47.462;19.304;2023-04-06T09:12:29;11.18;;;6.88;;
40162;SDS011;25881;47.462;19.304;2023-04-06T09:14:55;14.00;;;6.88;;
40162;SDS011;25881;47.462;19.304;2023-04-06T09:17:24;10.60;;;6.88;;
40162;SDS011;25881;47.462;19.304;2023-04-06T09:19:50;11.70;;;7.10;;
40162;SDS011;25881;47.462;19.304;2023-04-06T09:22:15;13.98;;;7.30;;
40162;SDS011;25881;47.462;19.304;2023-04-06T09:24:51;13.25;;;6.82;;
40162;SDS011;25881;47.462;19.304;2023-04-06T09:27:16;13.23;;;7.68;;
40162;SDS011;25881;47.462;19.304;2023-04-06T09:29:42;11.20;;;7.20;;
40162;SDS011;25881;47.462;19.304;2023-04-06T09:32:09;15.93;;;7.90;;
40162;SDS011;25881;47.462;19.304;2023-04-06T09:34:41;16.13;;;7.53;;
40162;SDS011;25881;47.462;19.304;2023-04-06T09:37:16;13.17;;;8.30;;
40162;SDS011;25881;47.462;19.304;2023-04-06T09:39:41;14.60;;;8.65;;
40162;SDS011;25881;47.462;19.304;2023-04-06T09:42:07;15.27;;;8.43;;
40162;SDS011;25881;47.462;19.304;2023-04-06T09:44:32;15.95;;;8.75;;
40162;SDS011;25881;47.462;19.304;2023-04-06T09:46:57;18.47;;;8.67;;
40162;SDS011;25881;47.462;19.304;2023-04-06T09:49:22;16.07;;;8.53;;
40162;SDS011;25881;47.462;19.304;2023-04-06T09:51:53;18.05;;;8.80;;
40162;SDS011;25881;47.462;19.304;2023-04-06T09:54:19;16.50;;;8.27;;
40162;SDS011;25881;47.462;19.304;2023-04-06T09:56:46;13.60;;;8.07;;
40162;SDS011;25881;47.462;19.304;2023-04-06T09:59:22;19.95;;;7.80;;
40162;SDS011;25881;47.462;19.304;2023-04-06T10:01:51;16.60;;;8.43;;
40162;SDS011;25881;47.462;19.304;2023-04-06T10:04:51;16.92;;;7.95;;
40162;SDS011;25881;47.462;19.304;2023-04-06T10:07:08;14.25;;;7.82;;
40162;SDS011;25881;47.462;19.304;2023-04-06T10:09:36;15.60;;;7.97;;
40162;SDS011;25881;47.462;19.304;2023-04-06T10:12:05;12.18;;;8.13;;
40162;SDS011;25881;47.462;19.304;2023-04-06T10:14:33;14.95;;;7.95;;
40162;SDS011;25881;47.462;19.304;2023-04-06T10:17:07;13.68;;;7.25;;
40162;SDS011;25881;47.462;19.304;2023-04-06T10:19:39;11.50;;;7.70;;
40162;SDS011;25881;47.462;19.304;2023-04-06T10:22:07;12.95;;;7.85;;
40162;SDS011;25881;47.462;19.304;2023-04-06T10:24:33;12.30;;;8.02;;
40162;SDS011;25881;47.462;19.304;2023-04-06T10:27:00;13.57;;;8.07;;
40162;SDS011;25881;47.462;19.304;2023-04-06T10:29:26;13.75;;;8.32;;
40162;SDS011;25881;47.462;19.304;2023-04-06T10:31:51;17.95;;;8.65;;
40162;SDS011;25881;47.462;19.304;2023-04-06T10:34:17;16.90;;;7.90;;
40162;SDS011;25881;47.462;19.304;2023-04-06T10:36:42;13.05;;;7.93;;
40162;SDS011;25881;47.462;19.304;2023-04-06T10:39:07;15.67;;;7.27;;
40162;SDS011;25881;47.462;19.304;2023-04-06T10:41:43;16.08;;;7.90;;
40162;SDS011;25881;47.462;19.304;2023-04-06T10:44:08;13.45;;;7.68;;
40162;SDS011;25881;47.462;19.304;2023-04-06T10:46:41;12.15;;;7.47;;
40162;SDS011;25881;47.462;19.304;2023-04-06T10:49:16;18.23;;;7.93;;
40162;SDS011;25881;47.462;19.304;2023-04-06T10:51:42;11.67;;;7.70;;
40162;SDS011;25881;47.462;19.304;2023-04-06T10:54:07;15.93;;;8.07;;
40162;SDS011;25881;47.462;19.304;2023-04-06T10:56:33;16.40;;;7.68;;
40162;SDS011;25881;47.462;19.304;2023-04-06T10:59:01;12.77;;;6.43;;
40162;SDS011;25881;47.462;19.304;2023-04-06T11:01:26;11.52;;;6.68;;
40162;SDS011;25881;47.462;19.304;2023-04-06T11:03:53;18.27;;;6.47;;
40162;SDS011;25881;47.462;19.304;2023-04-06T11:08:44;12.40;;;6.68;;
40162;SDS011;25881;47.462;19.304;2023-04-06T11:11:10;13.47;;;6.90;;
40162;SDS011;25881;47.462;19.304;2023-04-06T11:13:43;22.30;;;14.13;;
40162;SDS011;25881;47.462;19.304;2023-04-06T11:16:12;13.82;;;9.23;;
40162;SDS011;25881;47.462;19.304;2023-04-06T11:18:38;10.63;;;6.00;;
40162;SDS011;25881;47.462;19.304;2023-04-06T11:21:11;12.73;;;6.80;;
40162;SDS011;25881;47.462;19.304;2023-04-06T11:23:36;13.57;;;6.37;;
40162;SDS011;25881;47.462;19.304;2023-04-06T11:26:01;11.67;;;6.63;;
40162;SDS011;25881;47.462;19.304;2023-04-06T11:28:27;11.82;;;8.13;;
40162;SDS011;25881;47.462;19.304;2023-04-06T11:30:52;19.30;;;8.97;;
40162;SDS011;25881;47.462;19.304;2023-04-06T11:33:21;10.70;;;5.82;;
40162;SDS011;25881;47.462;19.304;2023-04-06T11:35:49;16.85;;;6.72;;
40162;SDS011;25881;47.462;19.304;2023-04-06T11:38:16;10.48;;;6.10;;
40162;SDS011;25881;47.462;19.304;2023-04-06T11:40:42;13.40;;;6.28;;
40162;SDS011;25881;47.462;19.304;2023-04-06T11:43:10;12.23;;;7.25;;
40162;SDS011;25881;47.462;19.304;2023-04-06T11:45:40;12.07;;;5.70;;
40162;SDS011;25881;47.462;19.304;2023-04-06T11:48:17;16.02;;;9.57;;
40162;SDS011;25881;47.462;19.304;2023-04-06T11:50:42;13.98;;;8.23;;
40162;SDS011;25881;47.462;19.304;2023-04-06T11:53:07;11.30;;;6.63;;
40162;SDS011;25881;47.462;19.304;2023-04-06T11:55:36;11.27;;;6.63;;
40162;SDS011;25881;47.462;19.304;2023-04-06T11:58:02;10.07;;;6.20;;
40162;SDS011;25881;47.462;19.304;2023-04-06T12:00:27;14.68;;;7.93;;
40162;SDS011;25881;47.462;19.304;2023-04-06T12:02:56;8.50;;;5.85;;
40162;SDS011;25881;47.462;19.304;2023-04-06T12:05:22;10.60;;;6.32;;
40162;SDS011;25881;47.462;19.304;2023-04-06T12:07:48;10.50;;;5.78;;
40162;SDS011;25881;47.462;19.304;2023-04-06T12:10:13;9.30;;;5.33;;
40162;SDS011;25881;47.462;19.304;2023-04-06T12:12:38;8.75;;;5.72;;
40162;SDS011;25881;47.462;19.304;2023-04-06T12:15:04;11.47;;;5.37;;
40162;SDS011;25881;47.462;19.304;2023-04-06T12:17:30;9.10;;;5.72;;
40162;SDS011;25881;47.462;19.304;2023-04-06T12:19:55;11.25;;;6.20;;
40162;SDS011;25881;47.462;19.304;2023-04-06T12:22:20;11.77;;;5.93;;
40162;SDS011;25881;47.462;19.304;2023-04-06T12:24:46;10.10;;;5.63;;
40162;SDS011;25881;47.462;19.304;2023-04-06T12:27:11;12.73;;;6.57;;
40162;SDS011;25881;47.462;19.304;2023-04-06T12:29:37;13.30;;;5.80;;
40162;SDS011;25881;47.462;19.304;2023-04-06T12:32:02;11.70;;;6.00;;
40162;SDS011;25881;47.462;19.304;2023-04-06T12:34:28;11.82;;;6.65;;
40162;SDS011;25881;47.462;19.304;2023-04-06T12:36:53;11.35;;;6.55;;
40162;SDS011;25881;47.462;19.304;2023-04-06T12:39:18;10.93;;;6.37;;
40162;SDS011;25881;47.462;19.304;2023-04-06T12:41:43;13.30;;;6.67;;
40162;SDS011;25881;47.462;19.304;2023-04-06T12:44:08;11.17;;;5.67;;
40162;SDS011;25881;47.462;19.304;2023-04-06T12:46:34;9.73;;;6.03;;
40162;SDS011;25881;47.462;19.304;2023-04-06T12:49:00;13.13;;;6.55;;
40162;SDS011;25881;47.462;19.304;2023-04-06T12:51:29;10.73;;;6.35;;
40162;SDS011;25881;47.462;19.304;2023-04-06T12:53:54;12.38;;;6.38;;
40162;SDS011;25881;47.462;19.304;2023-04-06T12:56:19;10.68;;;6.22;;
40162;SDS011;25881;47.462;19.304;2023-04-06T12:58:46;12.27;;;6.10;;
40162;SDS011;25881;47.462;19.304;2023-04-06T13:01:11;8.60;;;5.93;;
40162;SDS011;25881;47.462;19.304;2023-04-06T13:03:37;8.75;;;5.88;;
40162;SDS011;25881;47.462;19.304;2023-04-06T13:06:03;13.38;;;6.50;;
40162;SDS011;25881;47.462;19.304;2023-04-06T13:08:28;13.93;;;6.63;;
40162;SDS011;25881;47.462;19.304;2023-04-06T13:10:54;12.23;;;6.00;;
40162;SDS011;25881;47.462;19.304;2023-04-06T13:13:26;10.57;;;6.28;;
40162;SDS011;25881;47.462;19.304;2023-04-06T13:15:52;12.68;;;6.82;;
40162;SDS011;25881;47.462;19.304;2023-04-06T13:18:18;11.27;;;6.75;;
40162;SDS011;25881;47.462;19.304;2023-04-06T13:20:43;12.90;;;7.20;;
40162;SDS011;25881;47.462;19.304;2023-04-06T13:23:08;10.07;;;6.75;;
40162;SDS011;25881;47.462;19.304;2023-04-06T13:25:34;11.73;;;7.95;;
40162;SDS011;25881;47.462;19.304;2023-04-06T13:27:59;10.82;;;6.95;;
40162;SDS011;25881;47.462;19.304;2023-04-06T13:30:25;10.00;;;5.50;;
40162;SDS011;25881;47.462;19.304;2023-04-06T13:32:50;13.40;;;6.85;;
40162;SDS011;25881;47.462;19.304;2023-04-06T13:35:16;11.27;;;6.10;;
40162;SDS011;25881;47.462;19.304;2023-04-06T13:37:41;10.32;;;6.30;;
40162;SDS011;25881;47.462;19.304;2023-04-06T13:40:08;10.05;;;6.55;;
40162;SDS011;25881;47.462;19.304;2023-04-06T13:42:34;13.52;;;6.65;;
40162;SDS011;25881;47.462;19.304;2023-04-06T13:45:00;9.57;;;6.05;;
40162;SDS011;25881;47.462;19.304;2023-04-06T13:47:25;10.63;;;6.68;;
40162;SDS011;25881;47.462;19.304;2023-04-06T13:49:51;14.18;;;7.07;;
40162;SDS011;25881;47.462;19.304;2023-04-06T13:52:17;12.77;;;6.80;;
40162;SDS011;25881;47.462;19.304;2023-04-06T13:54:43;13.23;;;6.70;;
40162;SDS011;25881;47.462;19.304;2023-04-06T13:57:08;12.07;;;7.28;;
40162;SDS011;25881;47.462;19.304;2023-04-06T13:59:34;15.77;;;8.35;;
40162;SDS011;25881;47.462;19.304;2023-04-06T14:02:01;15.77;;;7.63;;
40162;SDS011;25881;47.462;19.304;2023-04-06T14:04:26;15.88;;;8.27;;
40162;SDS011;25881;47.462;19.304;2023-04-06T14:06:51;29.98;;;14.15;;
40162;SDS011;25881;47.462;19.304;2023-04-06T14:09:16;13.30;;;7.30;;
40162;SDS011;25881;47.462;19.304;2023-04-06T14:11:42;13.40;;;7.80;;
40162;SDS011;25881;47.462;19.304;2023-04-06T14:14:07;47.33;;;26.35;;